sensor_id;sensor_type;location;lat;lon;timestamp;temperature;humidity
25108;DHT22;13090;53.422;7.670;2022-08-19T00:03:58;17.80;80.10
25108;DHT22;13090;53.422;7.670;2022-08-19T00:10:31;17.70;80.10
25108;DHT22;13090;53.422;7.670;2022-08-19T00:15:33;17.60;80.70
25108;DHT22;13090;53.422;7.670;2022-08-19T00:20:36;17.50;80.60
25108;DHT22;13090;53.422;7.670;2022-08-19T00:25:40;17.50;80.50
25108;DHT22;13090;53.422;7.670;2022-08-19T00:30:44;17.40;80.70
25108;DHT22;13090;53.422;7.670;2022-08-19T00:35:47;17.30;80.80
25108;DHT22;13090;53.422;7.670;2022-08-19T00:40:58;17.20;80.80
25108;DHT22;13090;53.422;7.670;2022-08-19T00:46:01;17.10;80.80
25108;DHT22;13090;53.422;7.670;2022-08-19T00:51:04;17.10;80.80
25108;DHT22;13090;53.422;7.670;2022-08-19T00:56:09;17.10;80.70
25108;DHT22;13090;53.422;7.670;2022-08-19T01:01:12;17.10;80.90
25108;DHT22;13090;53.422;7.670;2022-08-19T01:06:15;17.00;81.10
25108;DHT22;13090;53.422;7.670;2022-08-19T01:11:23;17.00;81.30
25108;DHT22;13090;53.422;7.670;2022-08-19T01:16:27;17.00;81.20
25108;DHT22;13090;53.422;7.670;2022-08-19T01:21:33;17.00;81.10
25108;DHT22;13090;53.422;7.670;2022-08-19T01:26:41;16.90;81.20
25108;DHT22;13090;53.422;7.670;2022-08-19T01:31:44;16.90;81.10
25108;DHT22;13090;53.422;7.670;2022-08-19T01:36:48;16.80;81.20
25108;DHT22;13090;53.422;7.670;2022-08-19T01:41:52;16.70;81.40
25108;DHT22;13090;53.422;7.670;2022-08-19T01:46:55;16.70;81.40
25108;DHT22;13090;53.422;7.670;2022-08-19T01:52:00;16.60;81.10
25108;DHT22;13090;53.422;7.670;2022-08-19T01:57:08;16.50;81.20
25108;DHT22;13090;53.422;7.670;2022-08-19T02:02:12;16.50;81.40
25108;DHT22;13090;53.422;7.670;2022-08-19T02:07:15;16.50;81.30
25108;DHT22;13090;53.422;7.670;2022-08-19T02:12:19;16.30;81.30
25108;DHT22;13090;53.422;7.670;2022-08-19T02:17:21;16.30;81.50
25108;DHT22;13090;53.422;7.670;2022-08-19T02:22:25;16.20;81.50
25108;DHT22;13090;53.422;7.670;2022-08-19T02:27:29;16.20;81.60
25108;DHT22;13090;53.422;7.670;2022-08-19T02:32:31;16.20;81.70
25108;DHT22;13090;53.422;7.670;2022-08-19T02:37:35;16.20;81.60
25108;DHT22;13090;53.422;7.670;2022-08-19T02:42:39;16.20;81.60
25108;DHT22;13090;53.422;7.670;2022-08-19T02:47:42;16.20;81.60
25108;DHT22;13090;53.422;7.670;2022-08-19T02:52:44;16.20;81.80
25108;DHT22;13090;53.422;7.670;2022-08-19T02:57:48;16.20;81.80
25108;DHT22;13090;53.422;7.670;2022-08-19T03:02:51;16.20;82.00
25108;DHT22;13090;53.422;7.670;2022-08-19T03:07:54;16.10;81.90
25108;DHT22;13090;53.422;7.670;2022-08-19T03:12:58;16.10;82.10
25108;DHT22;13090;53.422;7.670;2022-08-19T03:18:05;16.20;82.30
25108;DHT22;13090;53.422;7.670;2022-08-19T03:23:10;16.20;82.30
25108;DHT22;13090;53.422;7.670;2022-08-19T03:28:15;16.20;82.30
25108;DHT22;13090;53.422;7.670;2022-08-19T03:33:17;16.20;82.30
25108;DHT22;13090;53.422;7.670;2022-08-19T03:38:30;16.10;81.90
25108;DHT22;13090;53.422;7.670;2022-08-19T03:43:35;16.00;81.80
25108;DHT22;13090;53.422;7.670;2022-08-19T03:48:39;15.90;82.10
25108;DHT22;13090;53.422;7.670;2022-08-19T03:53:42;15.90;82.30
25108;DHT22;13090;53.422;7.670;2022-08-19T03:58:46;15.90;82.20
25108;DHT22;13090;53.422;7.670;2022-08-19T04:03:49;15.80;82.00
25108;DHT22;13090;53.422;7.670;2022-08-19T04:08:53;15.60;82.30
25108;DHT22;13090;53.422;7.670;2022-08-19T04:13:58;15.50;82.70
25108;DHT22;13090;53.422;7.670;2022-08-19T04:19:06;15.40;83.00
25108;DHT22;13090;53.422;7.670;2022-08-19T04:24:09;15.40;83.30
25108;DHT22;13090;53.422;7.670;2022-08-19T04:29:15;15.40;83.30
25108;DHT22;13090;53.422;7.670;2022-08-19T04:34:20;15.40;83.20
25108;DHT22;13090;53.422;7.670;2022-08-19T04:39:25;15.50;83.20
25108;DHT22;13090;53.422;7.670;2022-08-19T04:44:30;15.50;83.30
25108;DHT22;13090;53.422;7.670;2022-08-19T04:49:34;15.60;83.50
25108;DHT22;13090;53.422;7.670;2022-08-19T04:54:37;15.60;83.30
25108;DHT22;13090;53.422;7.670;2022-08-19T04:59:42;15.70;83.20
25108;DHT22;13090;53.422;7.670;2022-08-19T05:04:45;15.80;83.50
25108;DHT22;13090;53.422;7.670;2022-08-19T05:09:48;15.90;83.60
25108;DHT22;13090;53.422;7.670;2022-08-19T05:15:07;16.00;83.60
25108;DHT22;13090;53.422;7.670;2022-08-19T05:20:10;16.20;84.00
25108;DHT22;13090;53.422;7.670;2022-08-19T05:25:16;16.40;83.70
25108;DHT22;13090;53.422;7.670;2022-08-19T05:30:21;16.60;83.30
25108;DHT22;13090;53.422;7.670;2022-08-19T05:35:44;16.70;83.10
25108;DHT22;13090;53.422;7.670;2022-08-19T05:40:46;16.80;82.80
25108;DHT22;13090;53.422;7.670;2022-08-19T05:45:51;16.90;83.00
25108;DHT22;13090;53.422;7.670;2022-08-19T05:50:53;16.90;83.40
25108;DHT22;13090;53.422;7.670;2022-08-19T05:55:55;17.20;83.60
25108;DHT22;13090;53.422;7.670;2022-08-19T06:01:01;17.30;82.10
25108;DHT22;13090;53.422;7.670;2022-08-19T06:06:05;17.40;82.70
25108;DHT22;13090;53.422;7.670;2022-08-19T06:11:20;17.50;83.70
25108;DHT22;13090;53.422;7.670;2022-08-19T06:16:25;17.90;84.10
25108;DHT22;13090;53.422;7.670;2022-08-19T06:21:28;18.60;85.70
25108;DHT22;13090;53.422;7.670;2022-08-19T06:26:32;19.60;85.70
25108;DHT22;13090;53.422;7.670;2022-08-19T06:31:40;20.80;84.90
25108;DHT22;13090;53.422;7.670;2022-08-19T06:36:45;22.00;83.10
25108;DHT22;13090;53.422;7.670;2022-08-19T06:41:50;23.00;80.20
25108;DHT22;13090;53.422;7.670;2022-08-19T06:47:00;23.90;79.70
25108;DHT22;13090;53.422;7.670;2022-08-19T06:52:11;24.80;77.80
25108;DHT22;13090;53.422;7.670;2022-08-19T06:57:15;25.70;77.20
25108;DHT22;13090;53.422;7.670;2022-08-19T07:02:19;26.70;77.00
25108;DHT22;13090;53.422;7.670;2022-08-19T07:07:23;27.70;74.10
25108;DHT22;13090;53.422;7.670;2022-08-19T07:12:27;28.70;73.00
25108;DHT22;13090;53.422;7.670;2022-08-19T07:17:33;29.60;70.60
25108;DHT22;13090;53.422;7.670;2022-08-19T07:22:37;30.40;71.60
25108;DHT22;13090;53.422;7.670;2022-08-19T07:27:40;30.90;67.60
25108;DHT22;13090;53.422;7.670;2022-08-19T07:32:48;31.20;65.00
25108;DHT22;13090;53.422;7.670;2022-08-19T07:37:51;31.20;62.90
25108;DHT22;13090;53.422;7.670;2022-08-19T07:42:54;31.10;62.20
25108;DHT22;13090;53.422;7.670;2022-08-19T07:47:58;30.90;61.50
25108;DHT22;13090;53.422;7.670;2022-08-19T07:53:01;30.60;60.90
25108;DHT22;13090;53.422;7.670;2022-08-19T07:58:04;30.30;61.70
25108;DHT22;13090;53.422;7.670;2022-08-19T08:03:09;30.20;62.10
25108;DHT22;13090;53.422;7.670;2022-08-19T08:08:12;30.20;61.00
25108;DHT22;13090;53.422;7.670;2022-08-19T08:13:15;30.40;62.00
25108;DHT22;13090;53.422;7.670;2022-08-19T08:18:19;30.60;60.80
25108;DHT22;13090;53.422;7.670;2022-08-19T08:23:21;30.80;61.30
25108;DHT22;13090;53.422;7.670;2022-08-19T08:28:26;31.00;61.00
25108;DHT22;13090;53.422;7.670;2022-08-19T08:33:32;31.10;60.10
25108;DHT22;13090;53.422;7.670;2022-08-19T08:38:36;31.40;59.50
25108;DHT22;13090;53.422;7.670;2022-08-19T08:43:44;31.20;58.20
25108;DHT22;13090;53.422;7.670;2022-08-19T08:48:53;31.00;59.60
25108;DHT22;13090;53.422;7.670;2022-08-19T08:53:56;30.70;57.50
25108;DHT22;13090;53.422;7.670;2022-08-19T08:59:03;30.60;58.70
25108;DHT22;13090;53.422;7.670;2022-08-19T09:04:08;30.60;58.50
25108;DHT22;13090;53.422;7.670;2022-08-19T09:09:17;30.40;55.70
25108;DHT22;13090;53.422;7.670;2022-08-19T09:14:32;30.00;58.00
25108;DHT22;13090;53.422;7.670;2022-08-19T09:19:57;30.00;57.40
25108;DHT22;13090;53.422;7.670;2022-08-19T09:25:00;29.80;57.00
25108;DHT22;13090;53.422;7.670;2022-08-19T09:30:02;29.20;57.70
25108;DHT22;13090;53.422;7.670;2022-08-19T09:35:08;28.80;59.20
25108;DHT22;13090;53.422;7.670;2022-08-19T09:40:12;28.80;60.20
25108;DHT22;13090;53.422;7.670;2022-08-19T09:45:15;29.30;60.00
25108;DHT22;13090;53.422;7.670;2022-08-19T09:50:21;29.60;57.20
25108;DHT22;13090;53.422;7.670;2022-08-19T09:55:25;30.00;57.50
25108;DHT22;13090;53.422;7.670;2022-08-19T10:00:33;30.40;58.60
25108;DHT22;13090;53.422;7.670;2022-08-19T10:05:37;30.80;58.50
25108;DHT22;13090;53.422;7.670;2022-08-19T10:10:44;31.20;57.00
25108;DHT22;13090;53.422;7.670;2022-08-19T10:15:48;31.40;56.00
25108;DHT22;13090;53.422;7.670;2022-08-19T10:21:04;31.40;55.40
25108;DHT22;13090;53.422;7.670;2022-08-19T10:26:08;31.60;55.50
25108;DHT22;13090;53.422;7.670;2022-08-19T10:31:14;32.20;55.80
25108;DHT22;13090;53.422;7.670;2022-08-19T10:36:24;32.60;55.30
25108;DHT22;13090;53.422;7.670;2022-08-19T10:41:29;33.00;55.00
25108;DHT22;13090;53.422;7.670;2022-08-19T10:46:33;33.50;54.10
25108;DHT22;13090;53.422;7.670;2022-08-19T10:51:41;34.00;53.60
25108;DHT22;13090;53.422;7.670;2022-08-19T10:56:49;34.50;52.50
25108;DHT22;13090;53.422;7.670;2022-08-19T11:01:51;34.90;51.10
25108;DHT22;13090;53.422;7.670;2022-08-19T11:06:58;34.90;50.50
25108;DHT22;13090;53.422;7.670;2022-08-19T11:12:01;34.90;50.70
25108;DHT22;13090;53.422;7.670;2022-08-19T11:17:06;35.00;50.90
25108;DHT22;13090;53.422;7.670;2022-08-19T11:22:10;35.60;50.90
25108;DHT22;13090;53.422;7.670;2022-08-19T11:27:17;36.20;48.90
25108;DHT22;13090;53.422;7.670;2022-08-19T11:32:19;36.70;47.60
25108;DHT22;13090;53.422;7.670;2022-08-19T11:37:24;36.80;46.40
25108;DHT22;13090;53.422;7.670;2022-08-19T11:42:26;36.70;46.90
25108;DHT22;13090;53.422;7.670;2022-08-19T11:47:29;36.70;46.20
25108;DHT22;13090;53.422;7.670;2022-08-19T11:52:34;36.90;46.30
25108;DHT22;13090;53.422;7.670;2022-08-19T11:57:36;37.00;45.40
25108;DHT22;13090;53.422;7.670;2022-08-19T12:02:39;37.20;45.40
25108;DHT22;13090;53.422;7.670;2022-08-19T12:07:44;37.20;44.80
25108;DHT22;13090;53.422;7.670;2022-08-19T12:12:47;37.20;44.10
25108;DHT22;13090;53.422;7.670;2022-08-19T12:18:00;37.10;43.80
25108;DHT22;13090;53.422;7.670;2022-08-19T12:23:07;36.90;44.10
25108;DHT22;13090;53.422;7.670;2022-08-19T12:28:09;36.70;44.30
25108;DHT22;13090;53.422;7.670;2022-08-19T12:33:12;36.50;43.50
25108;DHT22;13090;53.422;7.670;2022-08-19T12:38:16;36.20;43.40
25108;DHT22;13090;53.422;7.670;2022-08-19T12:43:19;35.90;43.50
25108;DHT22;13090;53.422;7.670;2022-08-19T12:48:21;35.70;43.90
25108;DHT22;13090;53.422;7.670;2022-08-19T12:53:37;35.60;44.70
25108;DHT22;13090;53.422;7.670;2022-08-19T12:58:41;35.60;44.30
25108;DHT22;13090;53.422;7.670;2022-08-19T13:03:51;35.50;44.90
25108;DHT22;13090;53.422;7.670;2022-08-19T13:08:55;35.40;43.80
25108;DHT22;13090;53.422;7.670;2022-08-19T13:14:01;34.90;43.00
25108;DHT22;13090;53.422;7.670;2022-08-19T13:19:04;34.00;43.80
25108;DHT22;13090;53.422;7.670;2022-08-19T13:24:08;33.50;44.00
25108;DHT22;13090;53.422;7.670;2022-08-19T13:29:10;32.90;44.60
25108;DHT22;13090;53.422;7.670;2022-08-19T13:34:15;32.50;45.70
25108;DHT22;13090;53.422;7.670;2022-08-19T13:39:19;32.50;46.50
25108;DHT22;13090;53.422;7.670;2022-08-19T13:44:25;32.50;46.80
25108;DHT22;13090;53.422;7.670;2022-08-19T13:49:28;32.80;47.20
25108;DHT22;13090;53.422;7.670;2022-08-19T13:54:32;32.90;45.90
25108;DHT22;13090;53.422;7.670;2022-08-19T13:59:34;32.70;45.90
25108;DHT22;13090;53.422;7.670;2022-08-19T14:04:37;32.50;46.30
25108;DHT22;13090;53.422;7.670;2022-08-19T14:09:41;32.40;46.70
25108;DHT22;13090;53.422;7.670;2022-08-19T14:14:47;32.50;46.60
25108;DHT22;13090;53.422;7.670;2022-08-19T14:19:49;32.70;47.60
25108;DHT22;13090;53.422;7.670;2022-08-19T14:24:53;32.80;46.50
25108;DHT22;13090;53.422;7.670;2022-08-19T14:29:56;32.90;46.80
25108;DHT22;13090;53.422;7.670;2022-08-19T14:34:58;33.00;46.80
25108;DHT22;13090;53.422;7.670;2022-08-19T14:40:04;33.10;46.00
25108;DHT22;13090;53.422;7.670;2022-08-19T14:45:08;33.10;45.50
25108;DHT22;13090;53.422;7.670;2022-08-19T14:50:11;32.90;46.00
25108;DHT22;13090;53.422;7.670;2022-08-19T14:55:21;32.80;46.10
25108;DHT22;13090;53.422;7.670;2022-08-19T15:00:24;32.80;46.20
25108;DHT22;13090;53.422;7.670;2022-08-19T15:05:27;32.90;46.90
25108;DHT22;13090;53.422;7.670;2022-08-19T15:10:31;33.00;46.10
25108;DHT22;13090;53.422;7.670;2022-08-19T15:15:34;33.10;46.10
25108;DHT22;13090;53.422;7.670;2022-08-19T15:20:36;33.10;45.90
25108;DHT22;13090;53.422;7.670;2022-08-19T15:25:40;33.10;45.70
25108;DHT22;13090;53.422;7.670;2022-08-19T15:30:43;33.10;45.80
25108;DHT22;13090;53.422;7.670;2022-08-19T15:35:47;33.10;45.60
25108;DHT22;13090;53.422;7.670;2022-08-19T15:40:51;33.10;45.70
25108;DHT22;13090;53.422;7.670;2022-08-19T15:45:54;33.00;45.70
25108;DHT22;13090;53.422;7.670;2022-08-19T15:50:56;32.80;45.90
25108;DHT22;13090;53.422;7.670;2022-08-19T15:56:01;32.80;45.90
25108;DHT22;13090;53.422;7.670;2022-08-19T16:01:06;32.60;46.10
25108;DHT22;13090;53.422;7.670;2022-08-19T16:06:13;32.40;46.70
25108;DHT22;13090;53.422;7.670;2022-08-19T16:11:20;32.10;47.10
25108;DHT22;13090;53.422;7.670;2022-08-19T16:16:26;31.80;47.80
25108;DHT22;13090;53.422;7.670;2022-08-19T16:21:36;31.30;48.30
25108;DHT22;13090;53.422;7.670;2022-08-19T16:26:43;30.70;48.70
25108;DHT22;13090;53.422;7.670;2022-08-19T16:31:46;30.20;49.70
25108;DHT22;13090;53.422;7.670;2022-08-19T16:36:49;29.80;50.30
25108;DHT22;13090;53.422;7.670;2022-08-19T16:41:53;29.40;51.10
25108;DHT22;13090;53.422;7.670;2022-08-19T16:46:56;29.10;51.90
25108;DHT22;13090;53.422;7.670;2022-08-19T16:52:00;28.80;52.50
25108;DHT22;13090;53.422;7.670;2022-08-19T16:57:05;28.60;53.10
25108;DHT22;13090;53.422;7.670;2022-08-19T17:02:13;28.50;53.90
25108;DHT22;13090;53.422;7.670;2022-08-19T17:07:15;28.50;53.40
25108;DHT22;13090;53.422;7.670;2022-08-19T17:12:19;28.40;54.40
25108;DHT22;13090;53.422;7.670;2022-08-19T17:17:22;28.40;55.00
25108;DHT22;13090;53.422;7.670;2022-08-19T17:22:30;28.40;55.20
25108;DHT22;13090;53.422;7.670;2022-08-19T17:27:34;28.40;55.40
25108;DHT22;13090;53.422;7.670;2022-08-19T17:32:37;28.40;55.80
25108;DHT22;13090;53.422;7.670;2022-08-19T17:37:40;28.30;55.70
25108;DHT22;13090;53.422;7.670;2022-08-19T17:42:44;28.20;55.90
25108;DHT22;13090;53.422;7.670;2022-08-19T17:47:47;28.20;56.10
25108;DHT22;13090;53.422;7.670;2022-08-19T17:52:49;28.10;56.10
25108;DHT22;13090;53.422;7.670;2022-08-19T17:57:54;28.00;56.30
25108;DHT22;13090;53.422;7.670;2022-08-19T18:03:00;28.00;56.60
25108;DHT22;13090;53.422;7.670;2022-08-19T18:08:03;28.00;56.50
25108;DHT22;13090;53.422;7.670;2022-08-19T18:13:07;27.90;56.60
25108;DHT22;13090;53.422;7.670;2022-08-19T18:18:18;27.80;56.80
25108;DHT22;13090;53.422;7.670;2022-08-19T18:23:21;27.60;56.90
25108;DHT22;13090;53.422;7.670;2022-08-19T18:28:45;27.50;57.30
25108;DHT22;13090;53.422;7.670;2022-08-19T18:33:51;27.40;57.70
25108;DHT22;13090;53.422;7.670;2022-08-19T18:38:53;27.30;57.70
25108;DHT22;13090;53.422;7.670;2022-08-19T18:43:57;27.10;58.00
25108;DHT22;13090;53.422;7.670;2022-08-19T18:49:00;27.00;58.30
25108;DHT22;13090;53.422;7.670;2022-08-19T18:54:03;27.00;58.40
25108;DHT22;13090;53.422;7.670;2022-08-19T18:59:07;26.80;58.50
25108;DHT22;13090;53.422;7.670;2022-08-19T19:04:09;26.80;59.00
25108;DHT22;13090;53.422;7.670;2022-08-19T19:09:14;26.60;59.50
25108;DHT22;13090;53.422;7.670;2022-08-19T19:14:23;26.50;59.40
25108;DHT22;13090;53.422;7.670;2022-08-19T19:19:49;26.50;60.00
25108;DHT22;13090;53.422;7.670;2022-08-19T19:24:54;26.40;59.50
25108;DHT22;13090;53.422;7.670;2022-08-19T19:30:04;26.20;59.80
25108;DHT22;13090;53.422;7.670;2022-08-19T19:35:17;26.10;60.20
25108;DHT22;13090;53.422;7.670;2022-08-19T19:40:23;26.00;60.60
25108;DHT22;13090;53.422;7.670;2022-08-19T19:45:27;25.90;60.60
25108;DHT22;13090;53.422;7.670;2022-08-19T19:50:30;25.70;61.00
25108;DHT22;13090;53.422;7.670;2022-08-19T19:55:32;25.60;61.40
25108;DHT22;13090;53.422;7.670;2022-08-19T20:00:36;25.50;61.80
25108;DHT22;13090;53.422;7.670;2022-08-19T20:05:39;25.50;62.60
25108;DHT22;13090;53.422;7.670;2022-08-19T20:10:42;25.50;62.80
25108;DHT22;13090;53.422;7.670;2022-08-19T20:15:47;25.40;63.10
25108;DHT22;13090;53.422;7.670;2022-08-19T20:20:50;25.30;63.50
25108;DHT22;13090;53.422;7.670;2022-08-19T20:25:53;25.20;63.70
25108;DHT22;13090;53.422;7.670;2022-08-19T20:30:56;25.10;64.00
25108;DHT22;13090;53.422;7.670;2022-08-19T20:35:59;25.10;64.70
25108;DHT22;13090;53.422;7.670;2022-08-19T20:41:02;25.00;64.50
25108;DHT22;13090;53.422;7.670;2022-08-19T20:46:06;24.90;64.70
25108;DHT22;13090;53.422;7.670;2022-08-19T20:51:10;24.90;65.20
25108;DHT22;13090;53.422;7.670;2022-08-19T20:56:14;24.80;65.10
25108;DHT22;13090;53.422;7.670;2022-08-19T21:01:19;24.70;65.20
25108;DHT22;13090;53.422;7.670;2022-08-19T21:06:21;24.70;65.60
25108;DHT22;13090;53.422;7.670;2022-08-19T21:11:24;24.60;65.70
25108;DHT22;13090;53.422;7.670;2022-08-19T21:16:28;24.60;65.90
25108;DHT22;13090;53.422;7.670;2022-08-19T21:21:31;24.50;66.40
25108;DHT22;13090;53.422;7.670;2022-08-19T21:26:34;24.40;66.50
25108;DHT22;13090;53.422;7.670;2022-08-19T21:31:38;24.40;66.80
25108;DHT22;13090;53.422;7.670;2022-08-19T21:36:40;24.30;67.40
25108;DHT22;13090;53.422;7.670;2022-08-19T21:41:43;24.40;67.30
25108;DHT22;13090;53.422;7.670;2022-08-19T21:46:47;24.40;67.50
25108;DHT22;13090;53.422;7.670;2022-08-19T21:51:51;24.30;67.80
25108;DHT22;13090;53.422;7.670;2022-08-19T21:56:54;24.30;67.50
25108;DHT22;13090;53.422;7.670;2022-08-19T22:02:01;24.30;67.60
25108;DHT22;13090;53.422;7.670;2022-08-19T22:07:21;24.30;68.00
25108;DHT22;13090;53.422;7.670;2022-08-19T22:12:26;24.30;68.20
25108;DHT22;13090;53.422;7.670;2022-08-19T22:17:31;24.30;68.50
25108;DHT22;13090;53.422;7.670;2022-08-19T22:22:34;24.20;68.40
25108;DHT22;13090;53.422;7.670;2022-08-19T22:27:37;24.20;69.30
25108;DHT22;13090;53.422;7.670;2022-08-19T22:32:45;24.20;68.60
25108;DHT22;13090;53.422;7.670;2022-08-19T22:37:48;24.20;69.10
25108;DHT22;13090;53.422;7.670;2022-08-19T22:42:56;24.10;68.70
25108;DHT22;13090;53.422;7.670;2022-08-19T22:48:00;24.10;69.70
25108;DHT22;13090;53.422;7.670;2022-08-19T22:53:05;24.10;69.40
25108;DHT22;13090;53.422;7.670;2022-08-19T22:58:08;24.00;69.20
25108;DHT22;13090;53.422;7.670;2022-08-19T23:03:12;24.00;69.40
25108;DHT22;13090;53.422;7.670;2022-08-19T23:08:14;23.90;69.90
25108;DHT22;13090;53.422;7.670;2022-08-19T23:13:18;23.80;69.80
25108;DHT22;13090;53.422;7.670;2022-08-19T23:18:22;23.70;70.10
25108;DHT22;13090;53.422;7.670;2022-08-19T23:23:24;23.50;70.40
25108;DHT22;13090;53.422;7.670;2022-08-19T23:28:27;23.40;70.70
25108;DHT22;13090;53.422;7.670;2022-08-19T23:33:35;23.20;71.30
25108;DHT22;13090;53.422;7.670;2022-08-19T23:38:53;23.20;72.00
25108;DHT22;13090;53.422;7.670;2022-08-19T23:43:55;23.10;71.60
25108;DHT22;13090;53.422;7.670;2022-08-19T23:49:03;23.20;71.90
25108;DHT22;13090;53.422;7.670;2022-08-19T23:54:05;23.20;72.20
25108;DHT22;13090;53.422;7.670;2022-08-19T23:59:07;23.00;72.00
